Time;durP1;ratioP1;P1;durP2;ratioP2;P2;SDS_P1;SDS_P2;PMS_P1;PMS_P2;Temp;Humidity;BMP_temperature;BMP_pressure;BME280_temperature;BME280_humidity;BME280_pressure;Samples;Min_cycle;Max_cycle;Signal;HPM_P1;HPM_P2
2021/10/18 00:01:26;;;;;;;;;;;;;;;17.50;nan;98979.25;5090941;28;19924;-78
2021/10/18 00:03:55;;;;;;;;;;;;;;;17.52;nan;98996.53;5075041;28;19929;-78
2021/10/18 00:06:22;;;;;;;;;;;;;;;17.04;nan;98997.44;5074964;28;20302;-78
2021/10/18 00:08:49;;;;;;;;;;;;;;;16.90;nan;99009.31;5074989;28;19928;-78
2021/10/18 00:11:18;;;;;;;;;;;;;;;17.15;nan;99017.50;5043449;28;19924;-79
2021/10/18 00:13:45;;;;;;;;;;;;;;;17.16;nan;99021.91;5074909;28;20386;-79
2021/10/18 00:16:13;;;;;;;;;;;;;;;17.24;nan;99009.81;5057068;28;20352;-79
2021/10/18 00:18:40;;;;;;;;;;;;;;;16.62;nan;99016.91;5074824;28;19969;-79
2021/10/18 00:21:09;;;;;;;;;;;;;;;16.75;nan;99013.97;5074713;28;20307;-79
2021/10/18 00:23:36;;;;;;;;;;;;;;;16.57;nan;99022.38;5074414;28;19928;-79
2021/10/18 00:26:04;;;;;;;;;;;;;;;16.69;nan;99016.63;5074825;28;19969;-78
2021/10/18 00:28:31;;;;;;;;;;;;;;;16.27;nan;99028.81;5074448;28;19944;-79
2021/10/18 00:30:58;;;;;;;;;;;;;;;16.57;nan;99025.22;5074534;28;20329;-79
2021/10/18 00:33:26;;;;;;;;;;;;;;;15.86;nan;99019.50;5075720;28;19929;-78
2021/10/18 00:35:53;;;;;;;;;;;;;;;16.63;nan;99012.84;5056843;28;20306;-79
2021/10/18 00:38:20;;;;;;;;;;;;;;;16.83;nan;99026.53;5053606;28;19931;-78
2021/10/18 00:40:48;;;;;;;;;;;;;;;15.80;nan;99049.50;5074596;28;20010;-78
2021/10/18 00:43:15;;;;;;;;;;;;;;;16.39;nan;99037.16;5056812;28;19929;-78
2021/10/18 00:45:43;;;;;;;;;;;;;;;16.54;nan;99020.50;5040149;28;19925;-79
2021/10/18 00:48:10;;;;;;;;;;;;;;;16.56;nan;99017.97;5056447;28;19977;-78
2021/10/18 00:50:37;;;;;;;;;;;;;;;16.36;nan;99020.41;5074052;28;20387;-79
2021/10/18 00:53:04;;;;;;;;;;;;;;;16.30;nan;99033.53;5074048;28;19932;-78
2021/10/18 00:55:32;;;;;;;;;;;;;;;16.20;nan;99030.66;5057577;28;20371;-78
2021/10/18 00:57:59;;;;;;;;;;;;;;;15.19;nan;99035.19;5054113;28;19925;-78
2021/10/18 01:00:28;;;;;;;;;;;;;;;15.30;nan;99041.25;5033805;28;19925;-78
2021/10/18 01:02:55;;;;;;;;;;;;;;;15.89;nan;99035.47;5054207;28;19931;-79
2021/10/18 01:05:22;;;;;;;;;;;;;;;16.02;nan;99030.53;5053918;28;19925;-78
2021/10/18 01:07:50;;;;;;;;;;;;;;;16.05;nan;99017.56;5053598;28;19925;-79
2021/10/18 01:10:17;;;;;;;;;;;;;;;15.95;nan;99018.75;5068755;28;20245;-78
2021/10/18 01:12:44;;;;;;;;;;;;;;;15.96;nan;99021.13;5032616;28;19932;-78
2021/10/18 01:15:12;;;;;;;;;;;;;;;15.67;nan;99015.00;5044274;28;19924;-79
2021/10/18 01:17:39;;;;;;;;;;;;;;;15.74;nan;99023.16;5053668;28;19925;-78
2021/10/18 01:20:12;;;;;;;;;;;;;;;15.23;nan;99019.00;5036157;28;19935;-78
2021/10/18 01:22:39;;;;;;;;;;;;;;;15.42;nan;99015.09;5053589;28;19925;-79
2021/10/18 01:25:07;;;;;;;;;;;;;;;15.31;nan;99014.66;5053627;28;19932;-78
2021/10/18 01:27:34;;;;;;;;;;;;;;;14.28;nan;99027.03;5035953;28;20245;-79
2021/10/18 01:30:03;;;;;;;;;;;;;;;14.72;nan;99028.81;5053567;28;19928;-78
2021/10/18 01:32:30;;;;;;;;;;;;;;;14.91;nan;99027.75;5053690;28;19931;-78
2021/10/18 01:34:57;;;;;;;;;;;;;;;14.96;nan;99020.75;5053458;28;19931;-78
2021/10/18 01:37:24;;;;;;;;;;;;;;;15.08;nan;99006.66;5053360;28;19935;-78
2021/10/18 01:39:52;;;;;;;;;;;;;;;15.17;nan;99012.38;5053493;28;19925;-78
2021/10/18 01:42:19;;;;;;;;;;;;;;;15.23;nan;99019.00;5035721;28;19928;-78
2021/10/18 01:44:47;;;;;;;;;;;;;;;15.17;nan;99009.56;5053391;28;19925;-78
2021/10/18 01:47:14;;;;;;;;;;;;;;;15.21;nan;99004.56;5032339;28;19925;-78
2021/10/18 01:49:41;;;;;;;;;;;;;;;15.19;nan;99001.41;5042966;28;19974;-78
2021/10/18 01:52:08;;;;;;;;;;;;;;;15.13;nan;99008.88;5053201;28;19925;-78
2021/10/18 01:54:35;;;;;;;;;;;;;;;15.18;nan;99005.50;5055294;28;19924;-78
2021/10/18 01:57:02;;;;;;;;;;;;;;;15.28;nan;99003.56;5073294;28;19932;-78
2021/10/18 01:59:30;;;;;;;;;;;;;;;15.03;nan;99003.63;5073455;28;19930;-78
2021/10/18 02:01:57;;;;;;;;;;;;;;;15.07;nan;98993.81;5035793;28;19974;-79
2021/10/18 02:04:24;;;;;;;;;;;;;;;14.20;nan;98987.09;5054788;28;20406;-79
2021/10/18 02:06:51;;;;;;;;;;;;;;;13.72;nan;98990.16;5073356;28;20306;-78
2021/10/18 02:09:18;;;;;;;;;;;;;;;14.43;nan;98989.56;5073246;28;19924;-78
2021/10/18 02:11:45;;;;;;;;;;;;;;;14.64;nan;98990.91;5055720;28;19931;-78
2021/10/18 02:14:13;;;;;;;;;;;;;;;14.22;nan;98976.16;5054141;28;19925;-78
2021/10/18 02:16:40;;;;;;;;;;;;;;;13.48;nan;98980.44;5052147;28;19924;-78
2021/10/18 02:19:07;;;;;;;;;;;;;;;12.81;nan;98998.31;5083159;28;19931;-78
2021/10/18 02:21:35;;;;;;;;;;;;;;;13.81;nan;99003.56;5072967;28;20307;-78
2021/10/18 02:24:02;;;;;;;;;;;;;;;14.24;nan;98989.78;5052000;28;19925;-78
2021/10/18 02:26:30;;;;;;;;;;;;;;;14.14;nan;98990.91;5068586;28;20298;-78
2021/10/18 02:28:58;;;;;;;;;;;;;;;14.41;nan;99002.50;5073239;28;19928;-78
2021/10/18 02:31:25;;;;;;;;;;;;;;;14.41;nan;98991.25;5046791;28;19947;-78
2021/10/18 02:33:52;;;;;;;;;;;;;;;14.62;nan;98993.38;5072927;28;20402;-78
2021/10/18 02:36:20;;;;;;;;;;;;;;;14.52;nan;98986.09;5072818;28;19924;-78
2021/10/18 02:38:48;;;;;;;;;;;;;;;14.61;nan;98991.00;5055110;28;19924;-78
2021/10/18 02:41:16;;;;;;;;;;;;;;;14.29;nan;98984.41;5073063;28;19931;-78
2021/10/18 02:43:43;;;;;;;;;;;;;;;14.51;nan;98984.50;5055331;28;19924;-79
2021/10/18 02:46:11;;;;;;;;;;;;;;;14.22;nan;98969.78;5055156;28;19924;-78
2021/10/18 02:48:38;;;;;;;;;;;;;;;13.65;nan;98978.34;5072681;28;20310;-78
2021/10/18 02:51:05;;;;;;;;;;;;;;;13.43;nan;98985.84;5072722;28;19924;-79
2021/10/18 02:53:32;;;;;;;;;;;;;;;13.98;nan;99003.00;5072446;28;19924;-78
2021/10/18 02:55:59;;;;;;;;;;;;;;;14.11;nan;98997.41;5072947;28;19924;-79
2021/10/18 02:58:27;;;;;;;;;;;;;;;14.27;nan;98997.31;5054918;28;19924;-79
2021/10/18 03:00:54;;;;;;;;;;;;;;;14.37;nan;98999.78;5051372;28;19924;-79
2021/10/18 03:03:22;;;;;;;;;;;;;;;14.27;nan;98986.88;5087363;28;19925;-79
2021/10/18 03:05:50;;;;;;;;;;;;;;;14.29;nan;98980.81;5058607;28;19936;-79
2021/10/18 03:08:17;;;;;;;;;;;;;;;14.31;nan;98990.34;5054968;28;19929;-79
2021/10/18 03:10:44;;;;;;;;;;;;;;;14.36;nan;98980.56;5077673;28;19931;-79
2021/10/18 03:13:14;;;;;;;;;;;;;;;13.74;nan;98962.44;5076384;28;19925;-79
2021/10/18 03:15:42;;;;;;;;;;;;;;;13.46;nan;98938.03;5076074;28;19925;-79
2021/10/18 03:18:09;;;;;;;;;;;;;;;13.40;nan;98933.41;5075963;28;19924;-78
2021/10/18 03:20:36;;;;;;;;;;;;;;;13.37;nan;98934.28;5075926;28;19932;-78
2021/10/18 03:23:03;;;;;;;;;;;;;;;13.32;nan;98949.66;5076115;28;20375;-78
2021/10/18 03:25:34;;;;;;;;;;;;;;;13.50;nan;98949.94;5075967;28;20296;-79
2021/10/18 03:28:04;;;;;;;;;;;;;;;12.15;nan;98944.72;5075998;28;20292;-78
2021/10/18 03:30:31;;;;;;;;;;;;;;;12.57;nan;98955.66;5075788;28;20432;-78
2021/10/18 03:32:59;;;;;;;;;;;;;;;12.72;nan;98951.28;5075595;28;19969;-78
2021/10/18 03:35:26;;;;;;;;;;;;;;;13.32;nan;98965.69;5054654;28;19925;-79
2021/10/18 03:37:53;;;;;;;;;;;;;;;13.77;nan;98978.38;5075228;28;19929;-79
2021/10/18 03:40:24;;;;;;;;;;;;;;;13.93;nan;98972.66;5075764;28;19974;-79
2021/10/18 03:42:52;;;;;;;;;;;;;;;14.18;nan;98969.88;5075572;28;19931;-79
2021/10/18 03:45:19;;;;;;;;;;;;;;;14.44;nan;98954.59;5075818;28;19931;-79
2021/10/18 03:47:46;;;;;;;;;;;;;;;14.54;nan;98937.84;5075346;28;19947;-79
2021/10/18 03:50:15;;;;;;;;;;;;;;;14.57;nan;98931.31;5075631;28;19931;-79
2021/10/18 03:52:42;;;;;;;;;;;;;;;14.39;nan;98937.50;5052129;28;20384;-79
2021/10/18 03:55:10;;;;;;;;;;;;;;;13.65;nan;98927.81;5055403;28;19925;-78
2021/10/18 03:57:37;;;;;;;;;;;;;;;14.04;nan;98927.41;5055352;28;19926;-78
2021/10/18 04:00:05;;;;;;;;;;;;;;;14.03;nan;98923.00;5033793;28;19925;-78
2021/10/18 04:02:38;;;;;;;;;;;;;;;14.33;nan;98934.50;5047592;28;19959;-79
2021/10/18 04:05:05;;;;;;;;;;;;;;;14.80;nan;98937.31;5037146;28;19932;-79
2021/10/18 04:07:32;;;;;;;;;;;;;;;14.91;nan;98951.00;5055032;28;19924;-79
2021/10/18 04:10:00;;;;;;;;;;;;;;;15.07;nan;98948.78;5037486;28;20393;-79
2021/10/18 04:12:27;;;;;;;;;;;;;;;13.96;nan;98935.28;5036992;28;19982;-78
2021/10/18 04:14:54;;;;;;;;;;;;;;;14.06;nan;98925.72;5039151;28;19925;-79
2021/10/18 04:17:22;;;;;;;;;;;;;;;14.67;nan;98930.94;5054971;28;20269;-79
2021/10/18 04:19:51;;;;;;;;;;;;;;;14.80;nan;98928.88;5054854;28;19925;-78
2021/10/18 04:22:18;;;;;;;;;;;;;;;14.61;nan;98938.38;5054818;28;19924;-79
2021/10/18 04:24:47;;;;;;;;;;;;;;;14.72;nan;98933.19;5055024;28;20269;-79
2021/10/18 04:27:14;;;;;;;;;;;;;;;14.70;nan;98934.88;5036744;28;19929;-79
2021/10/18 04:29:41;;;;;;;;;;;;;;;14.62;nan;98939.94;5054490;28;19925;-79
2021/10/18 04:32:08;;;;;;;;;;;;;;;14.75;nan;98943.53;5054477;28;19925;-79
2021/10/18 04:34:35;;;;;;;;;;;;;;;14.95;nan;98935.56;5054637;28;19924;-79
2021/10/18 04:37:03;;;;;;;;;;;;;;;15.01;nan;98930.16;5036876;28;19993;-79
2021/10/18 04:39:30;;;;;;;;;;;;;;;15.01;nan;98933.75;5054431;28;20271;-79
2021/10/18 04:41:58;;;;;;;;;;;;;;;14.75;nan;98937.91;5054578;28;19924;-79
2021/10/18 04:44:25;;;;;;;;;;;;;;;14.53;nan;98945.47;5054202;28;19925;-78
2021/10/18 04:46:52;;;;;;;;;;;;;;;14.85;nan;98952.81;5054464;28;19971;-79
2021/10/18 04:49:19;;;;;;;;;;;;;;;14.94;nan;98921.94;5054114;28;19929;-79
2021/10/18 04:51:47;;;;;;;;;;;;;;;14.90;nan;98913.66;5054223;28;20361;-79
2021/10/18 04:54:14;;;;;;;;;;;;;;;14.89;nan;98908.50;5068968;28;19991;-79
2021/10/18 04:56:41;;;;;;;;;;;;;;;15.03;nan;98916.41;5073923;28;20260;-78
2021/10/18 04:59:08;;;;;;;;;;;;;;;14.87;nan;98928.63;5089565;28;19928;-78
2021/10/18 05:01:36;;;;;;;;;;;;;;;14.12;nan;98934.34;5074019;28;19925;-79
2021/10/18 05:04:03;;;;;;;;;;;;;;;14.57;nan;98926.44;5074193;28;20370;-79
2021/10/18 05:06:31;;;;;;;;;;;;;;;14.89;nan;98926.13;5056167;28;19932;-79
2021/10/18 05:08:58;;;;;;;;;;;;;;;14.88;nan;98923.78;5074043;28;20348;-79
2021/10/18 05:11:25;;;;;;;;;;;;;;;14.73;nan;98934.75;5073901;28;19928;-78
2021/10/18 05:13:52;;;;;;;;;;;;;;;15.00;nan;98937.81;5055907;28;19970;-79
2021/10/18 05:16:19;;;;;;;;;;;;;;;15.03;nan;98925.63;5073692;28;19931;-79
2021/10/18 05:18:46;;;;;;;;;;;;;;;14.96;nan;98923.09;5073424;28;19955;-79
2021/10/18 05:21:14;;;;;;;;;;;;;;;14.68;nan;98904.38;5062339;28;19932;-79
2021/10/18 05:23:41;;;;;;;;;;;;;;;14.81;nan;98895.91;5071323;28;19925;-79
2021/10/18 05:26:08;;;;;;;;;;;;;;;14.74;nan;98908.19;5072809;28;19932;-79
2021/10/18 05:28:35;;;;;;;;;;;;;;;14.77;nan;98904.47;5073369;28;19977;-78
2021/10/18 05:31:03;;;;;;;;;;;;;;;14.12;nan;98897.84;5073545;28;19965;-79
2021/10/18 05:33:30;;;;;;;;;;;;;;;14.39;nan;98892.53;5073517;28;20384;-78
2021/10/18 05:35:57;;;;;;;;;;;;;;;13.73;nan;98895.50;5073478;28;19924;-79
2021/10/18 05:38:24;;;;;;;;;;;;;;;13.89;nan;98892.56;5055850;28;20387;-78
2021/10/18 05:40:52;;;;;;;;;;;;;;;14.02;nan;98868.09;5073275;28;19985;-79
2021/10/18 05:43:19;;;;;;;;;;;;;;;13.80;nan;98878.41;5055630;28;19928;-79
2021/10/18 05:45:46;;;;;;;;;;;;;;;14.20;nan;98883.13;5055660;28;20387;-79
2021/10/18 05:48:15;;;;;;;;;;;;;;;14.26;nan;98883.34;5055398;28;19932;-78
2021/10/18 05:50:44;;;;;;;;;;;;;;;14.26;nan;98883.34;5073390;28;19926;-79
2021/10/18 05:53:12;;;;;;;;;;;;;;;14.28;nan;98878.84;5072703;28;19932;-78
2021/10/18 05:55:40;;;;;;;;;;;;;;;14.15;nan;98899.75;5073377;28;20271;-78
2021/10/18 05:58:08;;;;;;;;;;;;;;;14.22;nan;98883.44;5073017;28;19931;-78
2021/10/18 06:00:37;;;;;;;;;;;;;;;14.36;nan;98887.81;5055537;28;19924;-79
2021/10/18 06:03:04;;;;;;;;;;;;;;;13.33;nan;98877.50;5053672;28;20291;-79
2021/10/18 06:05:33;;;;;;;;;;;;;;;13.61;nan;98885.03;5073214;28;19981;-79
2021/10/18 06:08:05;;;;;;;;;;;;;;;13.89;nan;98887.75;5055268;28;19925;-78
2021/10/18 06:10:33;;;;;;;;;;;;;;;14.01;nan;98886.19;5073253;28;19932;-79
2021/10/18 06:13:00;;;;;;;;;;;;;;;14.21;nan;98890.31;5073265;28;19924;-78
2021/10/18 06:15:28;;;;;;;;;;;;;;;14.31;nan;98874.38;5055383;28;19989;-79
2021/10/18 06:17:55;;;;;;;;;;;;;;;14.29;nan;98890.88;5060940;28;19924;-79
2021/10/18 06:20:22;;;;;;;;;;;;;;;14.48;nan;98879.38;5071386;28;20372;-78
2021/10/18 06:22:49;;;;;;;;;;;;;;;14.49;nan;98911.84;5052023;28;19925;-78
2021/10/18 06:25:17;;;;;;;;;;;;;;;14.65;nan;98905.28;5069368;28;19924;-78
2021/10/18 06:27:44;;;;;;;;;;;;;;;14.73;nan;98895.38;5073080;28;19925;-77
2021/10/18 06:30:11;;;;;;;;;;;;;;;14.12;nan;98900.66;5066746;28;19957;-78
2021/10/18 06:32:38;;;;;;;;;;;;;;;14.33;nan;98880.28;5092496;28;19937;-80
2021/10/18 06:35:06;;;;;;;;;;;;;;;14.23;nan;98875.81;5091621;28;20002;-78
2021/10/18 06:37:33;;;;;;;;;;;;;;;13.94;nan;98847.88;5078082;28;19924;-78
2021/10/18 06:40:00;;;;;;;;;;;;;;;14.21;nan;98852.97;5068215;28;20295;-78
2021/10/18 06:42:28;;;;;;;;;;;;;;;13.78;nan;98850.78;5091325;28;20339;-78
2021/10/18 06:44:55;;;;;;;;;;;;;;;13.74;nan;98877.41;5096991;28;19946;-78
2021/10/18 06:47:22;;;;;;;;;;;;;;;13.97;nan;98861.00;5084235;28;19924;-78
2021/10/18 06:49:50;;;;;;;;;;;;;;;14.30;nan;98875.56;5095774;28;19930;-78
2021/10/18 06:52:17;;;;;;;;;;;;;;;14.29;nan;98869.19;5096889;28;19924;-78
2021/10/18 06:54:44;;;;;;;;;;;;;;;14.63;nan;98850.75;5078516;28;19924;-79
2021/10/18 06:57:12;;;;;;;;;;;;;;;13.88;nan;98849.66;5096725;28;19931;-78
2021/10/18 06:59:40;;;;;;;;;;;;;;;14.31;nan;98861.06;5096388;28;19924;-78
2021/10/18 07:02:07;;;;;;;;;;;;;;;14.49;nan;98852.03;5096589;28;19924;-79
2021/10/18 07:04:38;;;;;;;;;;;;;;;14.71;nan;98852.09;5096574;28;19931;-79
2021/10/18 07:07:06;;;;;;;;;;;;;;;14.42;nan;98847.44;5096761;28;19924;-78
2021/10/18 07:09:34;;;;;;;;;;;;;;;14.40;nan;98829.47;5096386;28;19930;-79
2021/10/18 07:12:02;;;;;;;;;;;;;;;14.71;nan;98835.97;5095183;28;19930;-78
2021/10/18 07:14:30;;;;;;;;;;;;;;;14.77;nan;98834.16;5096287;28;19924;-78
2021/10/18 07:16:57;;;;;;;;;;;;;;;14.53;nan;98835.84;5096303;28;19931;-78
2021/10/18 07:19:24;;;;;;;;;;;;;;;14.90;nan;98829.28;5096438;28;19924;-78
2021/10/18 07:21:52;;;;;;;;;;;;;;;13.45;nan;98821.38;5096137;28;20391;-78
2021/10/18 07:24:19;;;;;;;;;;;;;;;14.17;nan;98827.84;5096177;28;19935;-79
2021/10/18 07:26:49;;;;;;;;;;;;;;;14.51;nan;98837.53;5095972;28;19928;-78
2021/10/18 07:29:17;;;;;;;;;;;;;;;13.86;nan;98820.44;5096075;28;19924;-79
2021/10/18 07:31:44;;;;;;;;;;;;;;;14.44;nan;98810.44;5096039;28;19931;-79
2021/10/18 07:34:17;;;;;;;;;;;;;;;14.51;nan;98823.47;5096027;28;19962;-78
2021/10/18 07:36:51;;;;;;;;;;;;;;;14.51;nan;98824.25;5096199;28;19977;-79
2021/10/18 07:39:21;;;;;;;;;;;;;;;14.51;nan;98798.94;5081866;28;20355;-78
2021/10/18 07:41:49;;;;;;;;;;;;;;;14.40;nan;98812.63;5077901;28;19931;-78
2021/10/18 07:44:16;;;;;;;;;;;;;;;15.09;nan;98822.50;5095651;28;20379;-78
2021/10/18 07:46:45;;;;;;;;;;;;;;;14.98;nan;98822.13;5095979;28;19951;-78
2021/10/18 07:49:12;;;;;;;;;;;;;;;14.96;nan;98807.75;5073344;28;19930;-78
2021/10/18 07:51:39;;;;;;;;;;;;;;;15.02;nan;98819.97;5095768;28;19924;-78
2021/10/18 07:54:06;;;;;;;;;;;;;;;14.48;nan;98818.78;5095523;28;19934;-79
2021/10/18 07:56:34;;;;;;;;;;;;;;;14.76;nan;98845.84;5077955;28;19931;-79
2021/10/18 07:59:02;;;;;;;;;;;;;;;14.36;nan;98838.03;5050696;28;19931;-79
2021/10/18 08:01:29;;;;;;;;;;;;;;;15.02;nan;98845.28;5092508;28;19932;-78
2021/10/18 08:03:56;;;;;;;;;;;;;;;15.14;nan;98823.94;5086737;28;19924;-84
2021/10/18 08:06:24;;;;;;;;;;;;;;;15.50;nan;98832.63;5090090;28;19924;-77
2021/10/18 08:08:53;;;;;;;;;;;;;;;14.84;nan;98822.66;5076279;28;19924;-77
2021/10/18 08:11:20;;;;;;;;;;;;;;;14.77;nan;98834.16;5094391;28;19924;-78
2021/10/18 08:13:47;;;;;;;;;;;;;;;15.19;nan;98815.69;5094302;28;19928;-77
2021/10/18 08:16:15;;;;;;;;;;;;;;;14.66;nan;98821.72;5094425;28;19943;-77
2021/10/18 08:18:42;;;;;;;;;;;;;;;14.80;nan;98838.09;5058965;28;19924;-77
2021/10/18 08:21:10;;;;;;;;;;;;;;;15.20;nan;98847.44;5091683;28;20306;-77
2021/10/18 08:23:37;;;;;;;;;;;;;;;15.34;nan;98844.84;5075777;28;19924;-77
2021/10/18 08:26:05;;;;;;;;;;;;;;;14.52;nan;98850.34;5091910;28;20107;-77
2021/10/18 08:28:32;;;;;;;;;;;;;;;14.21;nan;98850.16;5068368;28;19930;-88
2021/10/18 08:31:10;;;;;;;;;;;;;;;14.52;nan;98845.50;5073146;28;19924;-79
2021/10/18 08:33:38;;;;;;;;;;;;;;;14.82;nan;98832.78;5089472;28;19924;-79
2021/10/18 08:36:05;;;;;;;;;;;;;;;14.87;nan;98837.81;5090008;28;19928;-79
2021/10/18 08:38:48;;;;;;;;;;;;;;;15.11;nan;98836.13;5087658;28;20026;-78
2021/10/18 08:41:38;;;;;;;;;;;;;;;15.18;nan;98842.25;5085769;28;19924;-78
2021/10/18 08:44:15;;;;;;;;;;;;;;;15.28;nan;98829.81;5088879;28;19932;-78
2021/10/18 08:46:59;;;;;;;;;;;;;;;15.53;nan;98826.06;5084319;28;20396;-79
2021/10/18 08:49:26;;;;;;;;;;;;;;;15.38;nan;98817.41;5089337;28;19924;-78
2021/10/18 08:51:54;;;;;;;;;;;;;;;15.20;nan;98817.28;5088616;28;19973;-78
2021/10/18 08:54:29;;;;;;;;;;;;;;;14.97;nan;98814.13;5068400;28;19969;-79
2021/10/18 08:57:05;;;;;;;;;;;;;;;15.35;nan;98804.22;5069339;28;19924;-79
2021/10/18 08:59:32;;;;;;;;;;;;;;;15.20;nan;98817.28;5088571;28;19928;-79
2021/10/18 09:02:00;;;;;;;;;;;;;;;14.48;nan;98828.75;5075789;28;20304;-79
2021/10/18 09:04:28;;;;;;;;;;;;;;;15.58;nan;98826.25;5088118;28;19929;-79
2021/10/18 09:06:59;;;;;;;;;;;;;;;15.15;nan;98822.69;5081547;28;19934;-80
2021/10/18 09:09:28;;;;;;;;;;;;;;;15.41;nan;98810.84;5067614;28;19925;-79
2021/10/18 09:11:59;;;;;;;;;;;;;;;15.32;nan;98816.41;5087589;28;19955;-78
2021/10/18 09:14:27;;;;;;;;;;;;;;;15.69;nan;98815.31;5070140;28;19924;-79
2021/10/18 09:16:59;;;;;;;;;;;;;;;15.88;nan;98822.59;5088386;28;19928;-79
2021/10/18 09:19:26;;;;;;;;;;;;;;;15.79;nan;98797.22;5088793;28;19924;-78
2021/10/18 09:21:53;;;;;;;;;;;;;;;15.66;nan;98821.88;5070095;28;19932;-78
2021/10/18 09:24:30;;;;;;;;;;;;;;;15.99;nan;98806.03;5070162;28;19928;-78
2021/10/18 09:26:58;;;;;;;;;;;;;;;15.84;nan;98813.50;5087798;28;19930;-78
2021/10/18 09:29:36;;;;;;;;;;;;;;;15.48;nan;98815.41;5070827;28;19961;-79
2021/10/18 09:32:04;;;;;;;;;;;;;;;16.04;nan;98825.16;5088702;28;19928;-78
2021/10/18 09:34:33;;;;;;;;;;;;;;;15.80;nan;98815.69;5087501;28;20273;-79
2021/10/18 09:37:07;;;;;;;;;;;;;;;16.21;nan;98806.72;5087220;28;20383;-78
2021/10/18 09:39:37;;;;;;;;;;;;;;;15.26;nan;98804.16;5088108;28;19924;-77
2021/10/18 09:42:05;;;;;;;;;;;;;;;15.87;nan;98812.56;5088680;28;20215;-78
2021/10/18 10:52:51;;;;;;;;;;;;;;;16.18;nan;98790.75;5090040;28;19938;-79
2021/10/18 10:55:19;;;;;;;;;;;;;;;16.03;nan;98778.50;5089864;28;20615;-77
2021/10/18 10:57:46;;;;;;;;;;;;;;;15.38;nan;98783.63;5090307;28;19924;-77
2021/10/18 11:00:33;;;;;;;;;;;;;;;15.07;nan;98791.22;5090949;28;20395;-77
2021/10/18 11:03:19;;;;;;;;;;;;;;;15.27;nan;98793.66;5090479;28;19932;-77
2021/10/18 11:05:55;;;;;;;;;;;;;;;15.70;nan;98800.00;5090644;28;19965;-79
2021/10/18 11:08:33;;;;;;;;;;;;;;;15.62;nan;98793.09;5090621;28;19924;-79
2021/10/18 11:11:13;;;;;;;;;;;;;;;16.32;nan;98794.97;5082217;28;19932;-79
2021/10/18 11:13:43;;;;;;;;;;;;;;;16.35;nan;98787.63;5078136;28;19984;-76
2021/10/18 11:16:11;;;;;;;;;;;;;;;15.90;nan;98775.00;5089788;28;19935;-76
2021/10/18 11:18:39;;;;;;;;;;;;;;;15.40;nan;98786.75;5072704;28;19924;-76
2021/10/18 11:21:10;;;;;;;;;;;;;;;15.43;nan;98783.03;5079130;28;20188;-76
2021/10/18 11:23:56;;;;;;;;;;;;;;;15.57;nan;98785.25;5089865;28;19932;-76
2021/10/18 11:26:24;;;;;;;;;;;;;;;16.15;nan;98780.41;5091161;28;19970;-76
2021/10/18 11:28:57;;;;;;;;;;;;;;;16.39;nan;98771.34;5089886;28;19924;-76
2021/10/18 11:31:43;;;;;;;;;;;;;;;16.96;nan;98762.72;5090072;28;19953;-76
2021/10/18 11:34:15;;;;;;;;;;;;;;;16.74;nan;98752.84;5089835;28;19961;-76
2021/10/18 11:36:44;;;;;;;;;;;;;;;16.22;nan;98759.59;5085787;28;20413;-77
2021/10/18 11:39:22;;;;;;;;;;;;;;;16.34;nan;98749.41;5090179;28;19938;-81
2021/10/18 11:41:58;;;;;;;;;;;;;;;15.66;nan;98742.25;5088566;28;19924;-78
2021/10/18 11:44:41;;;;;;;;;;;;;;;15.96;nan;98756.25;5090289;28;20326;-76
2021/10/18 11:47:27;;;;;;;;;;;;;;;16.15;nan;98752.22;5090297;28;19924;-76
2021/10/18 11:50:05;;;;;;;;;;;;;;;16.12;nan;98753.16;5084879;28;19972;-76
2021/10/18 11:52:32;;;;;;;;;;;;;;;15.98;nan;98765.03;5096556;28;19930;-77
2021/10/18 11:54:59;;;;;;;;;;;;;;;15.94;nan;98755.94;5090393;28;20287;-76
2021/10/18 11:57:28;;;;;;;;;;;;;;;16.19;nan;98747.19;5087891;28;20298;-76
2021/10/18 11:59:56;;;;;;;;;;;;;;;16.68;nan;98755.53;5088610;28;19932;-77
2021/10/18 12:02:23;;;;;;;;;;;;;;;15.81;nan;98738.38;5091523;28;19924;-78
2021/10/18 12:04:55;;;;;;;;;;;;;;;16.61;nan;98740.97;5091870;28;19924;-79
2021/10/18 12:07:38;;;;;;;;;;;;;;;16.84;nan;98734.66;5094446;28;19930;-79
2021/10/18 12:10:20;;;;;;;;;;;;;;;17.22;nan;98732.06;5094427;28;19961;-79
2021/10/18 12:13:07;;;;;;;;;;;;;;;16.81;nan;98741.25;5094222;28;19942;-79
2021/10/18 12:15:54;;;;;;;;;;;;;;;17.25;nan;98725.44;5083415;28;20367;-79
2021/10/18 12:18:24;;;;;;;;;;;;;;;17.42;nan;98726.63;5093975;28;19939;-79
2021/10/18 12:20:55;;;;;;;;;;;;;;;17.55;nan;98724.41;5076986;28;20284;-79
2021/10/18 12:23:25;;;;;;;;;;;;;;;17.49;nan;98720.66;5093688;28;19928;-79
2021/10/18 12:25:55;;;;;;;;;;;;;;;17.06;nan;98735.22;5092677;28;19924;-78
2021/10/18 12:28:28;;;;;;;;;;;;;;;17.45;nan;98732.13;5092802;28;19928;-79
2021/10/18 12:30:56;;;;;;;;;;;;;;;16.65;nan;98731.09;5072784;28;20070;-78
2021/10/18 12:33:31;;;;;;;;;;;;;;;17.05;nan;98725.19;5093191;28;19948;-79
2021/10/18 12:35:58;;;;;;;;;;;;;;;17.31;nan;98740.47;5072937;28;19931;-79
2021/10/18 12:38:27;;;;;;;;;;;;;;;17.01;nan;98725.34;5093229;28;19924;-79
2021/10/18 12:41:12;;;;;;;;;;;;;;;16.39;nan;98714.94;5092604;28;19930;-76
2021/10/18 12:43:39;;;;;;;;;;;;;;;16.41;nan;98718.06;5075073;28;19924;-78
2021/10/18 12:46:21;;;;;;;;;;;;;;;16.41;nan;98718.06;5092893;28;19957;-79
2021/10/18 12:49:01;;;;;;;;;;;;;;;16.73;nan;98721.03;5075201;28;19928;-79
2021/10/18 12:51:32;;;;;;;;;;;;;;;16.01;nan;98721.81;5093043;28;19929;-79
2021/10/18 12:54:20;;;;;;;;;;;;;;;16.62;nan;98719.94;5093025;28;19924;-79
2021/10/18 12:56:59;;;;;;;;;;;;;;;16.60;nan;98708.38;5041623;28;19931;-79
2021/10/18 12:59:26;;;;;;;;;;;;;;;16.39;nan;98698.03;5093393;28;19924;-79
2021/10/18 13:02:12;;;;;;;;;;;;;;;16.90;nan;98707.38;5083566;28;20384;-79
2021/10/18 13:05:05;;;;;;;;;;;;;;;16.99;nan;98679.91;5092871;28;19934;-78
2021/10/18 13:07:33;;;;;;;;;;;;;;;17.43;nan;98657.59;5090006;28;20019;-79
2021/10/18 13:10:00;;;;;;;;;;;;;;;17.67;nan;98656.38;5046065;28;19976;-79
2021/10/18 13:12:27;;;;;;;;;;;;;;;18.04;nan;98651.22;5087368;28;19977;-79
2021/10/18 13:14:55;;;;;;;;;;;;;;;17.84;nan;98628.47;5088129;28;19972;-78
2021/10/18 13:17:23;;;;;;;;;;;;;;;17.66;nan;98637.84;5088644;28;20602;-79
2021/10/18 13:19:51;;;;;;;;;;;;;;;17.61;nan;98624.41;5087819;28;20182;-78
2021/10/18 13:22:19;;;;;;;;;;;;;;;17.54;nan;98623.94;5084762;28;19932;-78
2021/10/18 13:24:46;;;;;;;;;;;;;;;17.71;nan;98627.94;5088608;28;19950;-78
2021/10/18 13:27:14;;;;;;;;;;;;;;;17.71;nan;98627.94;5078729;28;19980;-78
2021/10/18 13:29:41;;;;;;;;;;;;;;;17.49;nan;98627.47;5078678;28;20391;-78
2021/10/18 13:32:09;;;;;;;;;;;;;;;17.17;nan;98633.88;5069888;28;19928;-78
2021/10/18 13:34:36;;;;;;;;;;;;;;;17.73;nan;98625.41;5086514;28;19946;-77
2021/10/18 13:37:03;;;;;;;;;;;;;;;17.71;nan;98625.09;5088240;28;20302;-78
2021/10/18 13:39:30;;;;;;;;;;;;;;;17.22;nan;98614.25;5090653;28;19928;-76
2021/10/18 13:41:58;;;;;;;;;;;;;;;17.91;nan;98619.63;5091273;28;20395;-77
2021/10/18 13:44:26;;;;;;;;;;;;;;;16.67;nan;98606.50;5092079;28;19924;-79
2021/10/18 13:46:53;;;;;;;;;;;;;;;17.73;nan;98608.47;5071211;28;19953;-79
2021/10/18 13:49:21;;;;;;;;;;;;;;;17.86;nan;98609.75;5092222;28;20074;-79
2021/10/18 13:51:48;;;;;;;;;;;;;;;18.13;nan;98603.06;5071525;28;19931;-79
2021/10/18 13:54:15;;;;;;;;;;;;;;;17.84;nan;98603.03;5072209;28;20410;-79
2021/10/18 13:56:42;;;;;;;;;;;;;;;17.39;nan;98614.59;5070163;28;20387;-77
2021/10/18 13:59:10;;;;;;;;;;;;;;;17.71;nan;98610.97;5061031;28;19950;-78
2021/10/18 14:01:37;;;;;;;;;;;;;;;17.40;nan;98614.13;5089699;28;19924;-77
2021/10/18 14:04:05;;;;;;;;;;;;;;;17.68;nan;98611.94;5091636;28;20372;-77
2021/10/18 14:06:32;;;;;;;;;;;;;;;17.62;nan;98611.84;5091442;28;19994;-77
2021/10/18 14:09:00;;;;;;;;;;;;;;;17.98;nan;98619.22;5091718;28;20287;-77
2021/10/18 14:11:27;;;;;;;;;;;;;;;17.57;nan;98620.16;5091589;28;19924;-79
2021/10/18 14:13:54;;;;;;;;;;;;;;;18.05;nan;98618.88;5092219;28;19924;-79
2021/10/18 14:16:21;;;;;;;;;;;;;;;18.25;nan;98615.41;5092380;28;20680;-79
2021/10/18 14:18:49;;;;;;;;;;;;;;;18.09;nan;98616.63;5092330;28;19924;-79
2021/10/18 14:21:16;;;;;;;;;;;;;;;17.59;nan;98626.91;5092676;28;19924;-79
2021/10/18 14:23:43;;;;;;;;;;;;;;;17.49;nan;98628.22;5091975;28;19924;-79
2021/10/18 14:26:11;;;;;;;;;;;;;;;17.84;nan;98637.72;5092184;28;19924;-79